Time;durP1;ratioP1;P1;durP2;ratioP2;P2;SDS_P1;SDS_P2;PMS_P1;PMS_P2;Temp;Humidity;BMP_temperature;BMP_pressure;BME280_temperature;BME280_humidity;BME280_pressure;Samples;Min_cycle;Max_cycle;Signal;HPM_P1;HPM_P2
2023/06/29 00:01:25;;;;;;;0.98;0.70;;;17.30;99.90;;;;;;5045231;28;20041;-67
2023/06/29 00:03:52;;;;;;;2.42;0.68;;;17.30;99.90;;;;;;5045958;28;20457;-66
2023/06/29 00:06:18;;;;;;;2.20;0.68;;;17.40;99.90;;;;;;5032860;28;20059;-66
2023/06/29 00:08:43;;;;;;;1.20;0.77;;;17.40;99.90;;;;;;5044233;28;20040;-67
2023/06/29 00:11:09;;;;;;;0.70;0.60;;;17.40;99.90;;;;;;5047640;28;20056;-67
2023/06/29 00:13:35;;;;;;;1.48;0.70;;;17.50;99.90;;;;;;5047061;28;20044;-66
2023/06/29 00:16:00;;;;;;;1.42;0.63;;;17.50;99.90;;;;;;5050247;28;20510;-66
2023/06/29 00:18:32;;;;;;;1.30;0.60;;;17.50;99.90;;;;;;5043226;28;20111;-66
2023/06/29 00:21:00;;;;;;;3.17;0.75;;;17.50;99.90;;;;;;5048926;28;20138;-67
2023/06/29 00:23:26;;;;;;;3.20;0.82;;;17.50;99.90;;;;;;5047388;28;20037;-66
2023/06/29 00:25:56;;;;;;;2.22;0.73;;;17.50;99.90;;;;;;5048956;28;20032;-66
2023/06/29 00:28:21;;;;;;;3.28;1.10;;;17.50;99.90;;;;;;5046332;28;20493;-66
2023/06/29 00:30:47;;;;;;;1.70;0.88;;;17.40;99.90;;;;;;5047782;28;20032;-66
2023/06/29 00:33:13;;;;;;;2.58;0.82;;;17.30;99.90;;;;;;5049091;28;20140;-66
2023/06/29 00:35:38;;;;;;;1.42;0.85;;;17.20;99.90;;;;;;5047178;28;20119;-66
2023/06/29 00:38:04;;;;;;;1.95;1.20;;;17.30;99.90;;;;;;5043356;28;20143;-67
2023/06/29 00:40:30;;;;;;;1.38;0.70;;;17.20;99.90;;;;;;5046653;28;20091;-67
2023/06/29 00:42:56;;;;;;;1.73;0.93;;;17.20;99.90;;;;;;5045152;28;20091;-66
2023/06/29 00:45:21;;;;;;;5.72;1.08;;;17.20;99.90;;;;;;5049919;28;22107;-66
2023/06/29 00:47:47;;;;;;;1.05;0.70;;;17.20;99.90;;;;;;5050142;28;20886;-66
2023/06/29 00:50:13;;;;;;;1.02;0.50;;;17.20;99.90;;;;;;5042498;28;20032;-67
2023/06/29 00:52:39;;;;;;;2.90;0.70;;;17.30;99.90;;;;;;5053419;28;21082;-67
2023/06/29 00:55:06;;;;;;;1.20;0.70;;;17.30;99.90;;;;;;5052203;28;20665;-66
2023/06/29 00:57:32;;;;;;;1.23;0.95;;;17.30;99.90;;;;;;5048784;28;20040;-67
2023/06/29 01:00:00;;;;;;;1.30;0.75;;;17.30;99.90;;;;;;5048260;28;20077;-67
2023/06/29 01:02:35;;;;;;;0.95;0.50;;;17.30;99.90;;;;;;5047618;28;20044;-67
2023/06/29 01:05:03;;;;;;;1.27;0.80;;;17.30;99.90;;;;;;5038270;28;20060;-67
2023/06/29 01:07:47;;;;;;;1.65;0.70;;;17.30;99.90;;;;;;5044895;28;20128;-66
2023/06/29 01:10:14;;;;;;;1.50;0.75;;;17.30;99.90;;;;;;5044628;28;20678;-67
2023/06/29 01:12:40;;;;;;;4.45;1.08;;;17.30;99.90;;;;;;5049496;28;20576;-67
2023/06/29 01:15:07;;;;;;;2.28;0.63;;;17.30;99.90;;;;;;5045787;28;20052;-67
2023/06/29 01:17:36;;;;;;;1.75;0.80;;;17.20;99.90;;;;;;5048624;28;20079;-67
2023/06/29 01:20:02;;;;;;;1.90;0.80;;;17.10;99.90;;;;;;5045917;28;20049;-67
2023/06/29 01:22:32;;;;;;;1.02;0.80;;;17.00;99.90;;;;;;5046125;28;20044;-68
2023/06/29 01:24:59;;;;;;;0.90;0.60;;;17.00;99.90;;;;;;5047444;28;20123;-67
2023/06/29 01:27:26;;;;;;;2.78;1.10;;;17.00;99.90;;;;;;5046115;28;20036;-67
2023/06/29 01:29:55;;;;;;;2.47;0.88;;;17.00;99.90;;;;;;5044920;28;20033;-67
2023/06/29 01:32:25;;;;;;;1.48;0.70;;;17.00;99.90;;;;;;5042849;28;20028;-67
2023/06/29 01:34:51;;;;;;;1.35;0.82;;;17.00;99.90;;;;;;5047299;28;20045;-68
2023/06/29 01:37:19;;;;;;;2.08;0.68;;;17.00;99.90;;;;;;5045102;28;20040;-67
2023/06/29 01:40:14;;;;;;;1.52;0.60;;;17.00;99.90;;;;;;5048331;28;20040;-66
2023/06/29 01:42:41;;;;;;;1.83;0.70;;;17.10;99.90;;;;;;5037577;28;20041;-67
2023/06/29 01:45:08;;;;;;;2.13;0.73;;;17.10;99.90;;;;;;5049946;28;20040;-66
2023/06/29 01:47:34;;;;;;;1.08;0.63;;;17.10;99.90;;;;;;5048896;28;20037;-66
2023/06/29 01:50:00;;;;;;;1.95;0.95;;;17.10;99.90;;;;;;5051256;28;20041;-66
2023/06/29 01:52:26;;;;;;;1.27;0.80;;;17.20;99.90;;;;;;5053785;28;20046;-66
2023/06/29 01:54:52;;;;;;;2.03;0.90;;;17.20;99.90;;;;;;5047664;28;20497;-66
2023/06/29 01:57:18;;;;;;;1.67;1.02;;;17.20;99.90;;;;;;5051492;28;20082;-66
2023/06/29 01:59:45;;;;;;;1.63;0.77;;;17.30;99.90;;;;;;5049075;28;20040;-66
2023/06/29 02:02:10;;;;;;;3.72;0.77;;;17.30;99.90;;;;;;5052120;28;20290;-67
2023/06/29 02:04:36;;;;;;;6.68;1.35;;;17.40;99.90;;;;;;5045910;28;20051;-66
2023/06/29 02:07:02;;;;;;;1.58;0.65;;;17.40;99.90;;;;;;5052446;28;20080;-66
2023/06/29 02:09:28;;;;;;;1.83;0.80;;;17.40;99.90;;;;;;5045860;28;20041;-66
2023/06/29 02:11:54;;;;;;;2.63;1.00;;;17.40;99.90;;;;;;5047617;28;20033;-66
2023/06/29 02:14:19;;;;;;;3.10;0.90;;;17.40;99.90;;;;;;5043875;28;20634;-66
2023/06/29 02:16:46;;;;;;;1.92;0.82;;;17.50;99.90;;;;;;5041951;28;20024;-66
2023/06/29 02:19:12;;;;;;;1.48;0.93;;;17.50;99.90;;;;;;5053651;28;20044;-67
2023/06/29 02:21:38;;;;;;;3.40;0.90;;;17.50;99.90;;;;;;5052819;28;20480;-66
2023/06/29 02:24:04;;;;;;;2.30;0.82;;;17.50;99.90;;;;;;5051026;28;20065;-66
2023/06/29 02:26:29;;;;;;;4.20;0.85;;;17.50;99.90;;;;;;5048885;28;20036;-66
2023/06/29 02:28:55;;;;;;;2.95;0.65;;;17.50;99.90;;;;;;5048312;28;20540;-67
2023/06/29 02:31:21;;;;;;;1.55;0.88;;;17.50;99.90;;;;;;5052226;28;20125;-66
2023/06/29 02:33:47;;;;;;;2.63;1.02;;;17.60;99.90;;;;;;5042776;28;20080;-67
2023/06/29 02:36:15;;;;;;;3.38;0.88;;;17.60;99.90;;;;;;5051426;28;20059;-67
2023/06/29 02:38:41;;;;;;;1.73;0.98;;;17.60;99.90;;;;;;5037809;28;20261;-66
2023/06/29 02:41:06;;;;;;;1.55;0.90;;;17.60;99.90;;;;;;5051386;28;20044;-65
2023/06/29 02:43:33;;;;;;;0.77;0.75;;;17.60;99.90;;;;;;5032830;28;20052;-66
2023/06/29 02:45:59;;;;;;;2.78;0.80;;;17.70;99.90;;;;;;5030783;28;20459;-66
2023/06/29 02:48:25;;;;;;;3.22;0.60;;;17.70;99.90;;;;;;5035983;28;20036;-66
2023/06/29 02:50:51;;;;;;;1.80;0.65;;;17.70;99.90;;;;;;5047235;28;20036;-66
2023/06/29 02:53:16;;;;;;;1.65;0.77;;;17.70;99.90;;;;;;5046639;28;20764;-67
2023/06/29 02:55:43;;;;;;;1.98;1.00;;;17.70;99.90;;;;;;5048746;28;20040;-66
2023/06/29 02:58:08;;;;;;;1.40;0.88;;;17.80;99.90;;;;;;5047481;28;20040;-66
2023/06/29 03:00:34;;;;;;;1.33;0.70;;;17.80;99.90;;;;;;5048963;28;20066;-66
2023/06/29 03:03:00;;;;;;;1.25;0.90;;;17.70;99.90;;;;;;5045778;28;20377;-66
2023/06/29 03:05:25;;;;;;;2.20;0.80;;;17.80;99.90;;;;;;5044347;28;20044;-66
2023/06/29 03:07:51;;;;;;;2.88;1.00;;;17.70;99.90;;;;;;5042366;28;20118;-67
2023/06/29 03:10:16;;;;;;;2.85;0.90;;;17.60;99.90;;;;;;5045977;28;20029;-67
2023/06/29 03:12:42;;;;;;;1.67;1.00;;;17.60;99.90;;;;;;5045755;28;20032;-66
2023/06/29 03:15:08;;;;;;;4.30;1.35;;;17.60;99.90;;;;;;5039090;28;20068;-66
2023/06/29 03:17:34;;;;;;;2.03;1.02;;;17.50;99.90;;;;;;5044179;28;20385;-67
2023/06/29 03:19:59;;;;;;;2.42;0.95;;;17.60;99.90;;;;;;5032405;28;20045;-67
2023/06/29 03:22:26;;;;;;;1.77;0.98;;;17.50;99.90;;;;;;5045487;28;20044;-67
2023/06/29 03:24:52;;;;;;;1.98;0.90;;;17.40;99.90;;;;;;5043988;28;20035;-67
2023/06/29 03:27:18;;;;;;;2.22;0.93;;;17.30;99.90;;;;;;5045727;28;20040;-67
2023/06/29 03:29:45;;;;;;;4.60;1.05;;;17.30;99.90;;;;;;5043691;28;20033;-66
2023/06/29 03:32:10;;;;;;;1.15;0.90;;;17.20;99.90;;;;;;5047267;28;20032;-67
2023/06/29 03:34:36;;;;;;;1.67;0.85;;;17.20;99.90;;;;;;5047476;28;20055;-66
2023/06/29 03:37:01;;;;;;;2.83;1.00;;;17.10;99.90;;;;;;5046075;28;20122;-67
2023/06/29 03:39:27;;;;;;;1.48;0.85;;;17.10;99.90;;;;;;5039406;28;20048;-67
2023/06/29 03:41:53;;;;;;;1.95;1.00;;;17.10;99.90;;;;;;5042111;28;20046;-67
2023/06/29 03:44:18;;;;;;;2.88;0.90;;;17.20;99.90;;;;;;5039103;28;20105;-67
2023/06/29 03:46:44;;;;;;;3.10;0.82;;;17.20;99.90;;;;;;5045004;28;20029;-67
2023/06/29 03:49:09;;;;;;;2.55;1.10;;;17.20;99.90;;;;;;5041745;28;20925;-67
2023/06/29 03:51:35;;;;;;;1.63;1.13;;;17.20;99.90;;;;;;5045227;28;20032;-66
2023/06/29 03:54:01;;;;;;;3.05;1.08;;;17.20;99.90;;;;;;5040190;28;20055;-67
2023/06/29 03:56:26;;;;;;;1.60;1.00;;;17.30;99.90;;;;;;5045517;28;20064;-67
2023/06/29 03:58:52;;;;;;;1.58;0.90;;;17.40;99.90;;;;;;5030468;28;20052;-67
2023/06/29 04:01:18;;;;;;;3.22;1.15;;;17.40;99.90;;;;;;5043993;28;20040;-67
2023/06/29 04:03:43;;;;;;;1.40;0.95;;;17.50;99.90;;;;;;5042211;28;20440;-67
2023/06/29 04:06:09;;;;;;;1.77;0.90;;;17.50;99.90;;;;;;5042901;28;20048;-67
2023/06/29 04:08:34;;;;;;;1.92;0.90;;;17.50;99.90;;;;;;5032678;28;23873;-67
2023/06/29 04:11:00;;;;;;;4.40;0.98;;;17.50;99.90;;;;;;5045032;28;20867;-67
2023/06/29 04:13:26;;;;;;;2.45;1.02;;;17.60;99.90;;;;;;5049569;28;20052;-67
2023/06/29 04:15:53;;;;;;;2.08;0.75;;;17.70;99.90;;;;;;5045029;28;20210;-67
2023/06/29 04:18:19;;;;;;;3.90;1.08;;;17.80;99.90;;;;;;5044891;28;20037;-67
2023/06/29 04:20:44;;;;;;;2.67;1.00;;;18.00;99.90;;;;;;5047209;28;20079;-67
2023/06/29 04:23:14;;;;;;;3.53;0.85;;;18.00;99.90;;;;;;5047420;28;20366;-67
2023/06/29 04:25:42;;;;;;;2.83;1.10;;;18.20;99.90;;;;;;5049374;28;20049;-67
2023/06/29 04:28:08;;;;;;;5.30;1.40;;;18.30;99.90;;;;;;5049833;28;20800;-66
2023/06/29 04:30:36;;;;;;;3.60;1.20;;;18.30;99.90;;;;;;5032389;28;20774;-67
2023/06/29 04:33:09;;;;;;;1.63;0.90;;;18.40;99.90;;;;;;5048704;28;20043;-66
2023/06/29 04:35:36;;;;;;;4.40;1.30;;;18.50;99.90;;;;;;5051465;28;20041;-67
2023/06/29 04:38:01;;;;;;;1.65;1.20;;;18.50;99.90;;;;;;5050851;28;20036;-66
2023/06/29 04:40:27;;;;;;;1.70;1.08;;;18.60;99.90;;;;;;5044871;28;20107;-66
2023/06/29 04:42:55;;;;;;;2.53;0.95;;;18.70;99.90;;;;;;5049869;28;20036;-67
2023/06/29 04:45:20;;;;;;;1.58;1.10;;;18.80;99.90;;;;;;5042308;28;20028;-67
2023/06/29 04:47:49;;;;;;;2.38;1.10;;;18.80;99.90;;;;;;5050538;28;20036;-67
2023/06/29 04:50:15;;;;;;;1.98;1.05;;;18.90;99.90;;;;;;5047775;28;20144;-67
2023/06/29 04:52:42;;;;;;;1.55;1.13;;;19.00;99.90;;;;;;5051574;28;20040;-67
2023/06/29 04:55:09;;;;;;;4.20;1.10;;;19.00;99.90;;;;;;5048201;28;20094;-67
2023/06/29 04:57:35;;;;;;;2.15;1.10;;;19.00;99.90;;;;;;5050487;28;20071;-67
2023/06/29 05:00:06;;;;;;;4.60;1.10;;;19.10;99.90;;;;;;5046491;28;20033;-66
2023/06/29 05:02:32;;;;;;;3.13;1.58;;;19.20;99.90;;;;;;5043142;28;20040;-67
2023/06/29 05:04:57;;;;;;;2.22;1.15;;;19.20;99.90;;;;;;5032587;28;20045;-67
2023/06/29 05:07:23;;;;;;;5.97;1.20;;;19.30;99.90;;;;;;5032112;28;20044;-66
2023/06/29 05:09:48;;;;;;;15.48;4.40;;;19.30;99.90;;;;;;5047218;28;20532;-67
2023/06/29 05:12:14;;;;;;;7.50;1.95;;;19.30;99.90;;;;;;5050557;28;20104;-66
2023/06/29 05:14:40;;;;;;;7.18;2.60;;;19.30;99.90;;;;;;5048566;28;20041;-67
2023/06/29 05:17:06;;;;;;;4.75;1.98;;;19.20;99.90;;;;;;5049065;28;20128;-67
2023/06/29 05:19:32;;;;;;;7.40;1.80;;;19.30;99.90;;;;;;5055394;28;20040;-67
2023/06/29 05:21:58;;;;;;;2.35;1.30;;;19.30;99.90;;;;;;5051647;28;20040;-67
2023/06/29 05:24:25;;;;;;;2.65;1.30;;;19.30;99.90;;;;;;5051912;28;20663;-67
2023/06/29 05:26:50;;;;;;;3.35;1.70;;;19.30;99.90;;;;;;5054777;28;20040;-67
2023/06/29 05:29:16;;;;;;;3.35;1.25;;;19.30;99.90;;;;;;5047181;28;23261;-67
2023/06/29 05:31:42;;;;;;;3.80;1.55;;;19.40;99.90;;;;;;5052494;28;20124;-68
2023/06/29 05:34:07;;;;;;;3.90;1.40;;;19.40;99.90;;;;;;5049698;28;20052;-68
2023/06/29 05:36:33;;;;;;;2.58;1.40;;;19.40;99.90;;;;;;5050474;28;20036;-68
2023/06/29 05:38:59;;;;;;;3.17;1.58;;;19.40;99.90;;;;;;5050900;28;20132;-68
2023/06/29 05:41:24;;;;;;;3.17;1.52;;;19.40;99.90;;;;;;5048149;28;21837;-68
2023/06/29 05:43:50;;;;;;;5.25;1.40;;;19.50;99.90;;;;;;5055826;28;20040;-68
2023/06/29 05:46:15;;;;;;;5.28;1.38;;;19.50;99.90;;;;;;5049040;28;20041;-66
2023/06/29 05:48:41;;;;;;;1.45;1.35;;;19.60;99.90;;;;;;5048611;28;20123;-65
2023/06/29 05:51:07;;;;;;;4.00;1.35;;;19.60;99.90;;;;;;5035636;28;20151;-66
2023/06/29 05:53:33;;;;;;;2.17;1.17;;;19.70;99.90;;;;;;5053726;28;20076;-65
2023/06/29 05:55:58;;;;;;;1.40;1.20;;;19.70;99.90;;;;;;5057155;28;20155;-65
2023/06/29 05:58:24;;;;;;;2.08;1.20;;;19.70;99.90;;;;;;5054045;28;20455;-65
2023/06/29 06:00:51;;;;;;;3.08;1.52;;;19.80;99.90;;;;;;5055591;28;20029;-65
2023/06/29 06:03:16;;;;;;;1.70;1.42;;;19.90;99.90;;;;;;5038420;28;20125;-69
2023/06/29 06:05:42;;;;;;;2.42;1.10;;;20.00;99.90;;;;;;5054351;28;20111;-68
2023/06/29 06:08:08;;;;;;;1.38;1.25;;;20.10;99.90;;;;;;5057884;28;20074;-68
2023/06/29 06:10:33;;;;;;;1.88;1.20;;;20.20;99.90;;;;;;5051847;28;20081;-68
2023/06/29 06:12:59;;;;;;;2.42;1.38;;;20.30;99.90;;;;;;5037687;28;20669;-69
2023/06/29 06:15:25;;;;;;;3.10;1.10;;;20.40;99.90;;;;;;5056178;28;20188;-69
2023/06/29 06:17:51;;;;;;;1.60;1.50;;;20.50;99.90;;;;;;5056772;28;21709;-69
2023/06/29 06:20:16;;;;;;;2.30;1.50;;;20.50;99.90;;;;;;5057867;28;20157;-65
2023/06/29 06:22:42;;;;;;;1.65;1.30;;;20.60;99.90;;;;;;5052888;28;20043;-69
2023/06/29 06:25:08;;;;;;;1.30;1.20;;;20.60;99.90;;;;;;5049620;28;20028;-69
2023/06/29 06:27:34;;;;;;;3.60;1.50;;;20.60;99.90;;;;;;5034097;28;20076;-68
2023/06/29 06:30:00;;;;;;;2.03;1.30;;;20.50;99.90;;;;;;5050927;28;20115;-69
2023/06/29 06:32:25;;;;;;;3.50;1.42;;;20.50;99.90;;;;;;5034717;28;20128;-68
2023/06/29 06:34:52;;;;;;;1.70;1.60;;;20.50;99.90;;;;;;5049937;28;20048;-68
2023/06/29 06:37:18;;;;;;;3.53;1.40;;;20.70;99.90;;;;;;5054130;28;20119;-69
2023/06/29 06:39:43;;;;;;;3.15;1.27;;;20.70;99.90;;;;;;5056543;28;20044;-68
2023/06/29 06:42:09;;;;;;;1.83;1.20;;;20.80;99.90;;;;;;5051554;28;20565;-65
2023/06/29 06:44:36;;;;;;;2.35;1.40;;;20.90;99.90;;;;;;5049317;28;20036;-64
2023/06/29 06:47:02;;;;;;;1.88;1.00;;;20.90;99.90;;;;;;5050565;28;20045;-63
2023/06/29 06:49:27;;;;;;;1.60;1.30;;;20.90;99.90;;;;;;5054909;28;20567;-64
2023/06/29 06:51:53;;;;;;;2.45;1.50;;;21.10;99.90;;;;;;5054087;28;20036;-64
2023/06/29 06:54:19;;;;;;;1.45;1.20;;;21.20;99.90;;;;;;5052777;28;20049;-64
2023/06/29 06:56:44;;;;;;;3.70;1.30;;;21.10;99.90;;;;;;5043675;28;20151;-64
2023/06/29 06:59:12;;;;;;;1.98;1.10;;;21.10;99.90;;;;;;5056086;28;20041;-65
2023/06/29 07:01:40;;;;;;;3.67;1.20;;;21.20;99.90;;;;;;5048414;28;20045;-65
2023/06/29 07:04:06;;;;;;;2.42;1.73;;;21.30;99.90;;;;;;5042746;28;20031;-65
2023/06/29 07:06:33;;;;;;;1.50;1.10;;;21.30;99.90;;;;;;5052629;28;20032;-64
2023/06/29 07:08:59;;;;;;;1.42;1.20;;;21.40;99.90;;;;;;5042441;28;20100;-63
2023/06/29 07:11:25;;;;;;;1.65;0.98;;;21.60;99.90;;;;;;5044928;28;20033;-64
2023/06/29 07:13:51;;;;;;;2.13;1.15;;;21.70;99.90;;;;;;5049642;28;20041;-65
2023/06/29 07:16:17;;;;;;;1.25;1.15;;;21.80;99.90;;;;;;5053778;28;20035;-64
2023/06/29 07:19:04;;;;;;;1.30;0.93;;;21.80;99.90;;;;;;5056245;28;20568;-64
2023/06/29 07:21:30;;;;;;;2.30;1.20;;;22.00;99.90;;;;;;5033878;28;20037;-64
2023/06/29 07:23:55;;;;;;;2.20;1.05;;;22.00;99.90;;;;;;5044392;28;21275;-64
2023/06/29 07:26:22;;;;;;;6.75;1.10;;;22.00;99.90;;;;;;5036706;28;20106;-64
2023/06/29 07:28:48;;;;;;;1.27;1.13;;;22.10;99.90;;;;;;5044101;28;20033;-64
2023/06/29 07:31:14;;;;;;;1.73;1.10;;;22.00;99.90;;;;;;5044264;28;20066;-64
2023/06/29 07:33:41;;;;;;;1.63;0.85;;;22.10;99.90;;;;;;5053774;28;20110;-64
2023/06/29 07:36:08;;;;;;;2.75;1.48;;;22.20;99.90;;;;;;5045821;28;20036;-69
2023/06/29 07:38:34;;;;;;;3.30;1.02;;;22.20;99.90;;;;;;5046044;28;20104;-69
2023/06/29 07:41:01;;;;;;;1.17;0.90;;;22.30;99.90;;;;;;5050515;28;21062;-69
2023/06/29 07:43:26;;;;;;;1.88;1.15;;;22.30;99.90;;;;;;5050186;28;20036;-69
2023/06/29 07:45:52;;;;;;;1.98;1.15;;;22.60;99.90;;;;;;5042072;28;20036;-69
2023/06/29 07:48:18;;;;;;;1.27;1.00;;;22.70;99.90;;;;;;5050410;28;20094;-69
2023/06/29 07:50:43;;;;;;;1.88;1.30;;;22.70;99.90;;;;;;5042963;28;20098;-69
2023/06/29 07:53:09;;;;;;;1.65;1.15;;;22.60;99.90;;;;;;5056025;28;20105;-69
2023/06/29 07:55:34;;;;;;;0.85;0.80;;;22.60;99.90;;;;;;5044905;28;20059;-69
2023/06/29 07:58:00;;;;;;;2.03;1.05;;;22.50;99.90;;;;;;5050971;28;20036;-69
2023/06/29 08:00:26;;;;;;;1.25;1.15;;;22.40;99.90;;;;;;5042866;28;20755;-63
2023/06/29 08:02:51;;;;;;;2.80;1.20;;;22.50;99.90;;;;;;5052355;28;20041;-66
2023/06/29 08:05:17;;;;;;;2.63;1.27;;;22.60;99.90;;;;;;5051288;28;20028;-66
2023/06/29 08:07:43;;;;;;;1.88;1.10;;;22.80;99.90;;;;;;5048168;28;20472;-66
2023/06/29 08:10:09;;;;;;;1.30;1.20;;;22.80;99.90;;;;;;5034130;28;20043;-66
2023/06/29 08:12:35;;;;;;;1.27;1.10;;;22.80;99.90;;;;;;5051765;28;20040;-67
2023/06/29 08:15:01;;;;;;;1.17;0.98;;;22.90;99.90;;;;;;5048446;28;20405;-66
2023/06/29 08:17:26;;;;;;;1.52;1.10;;;22.80;99.90;;;;;;5040585;28;20032;-66
2023/06/29 08:19:52;;;;;;;4.15;0.90;;;22.90;99.90;;;;;;5045995;28;20044;-65
2023/06/29 08:22:18;;;;;;;2.55;1.00;;;23.00;99.90;;;;;;5049163;28;20040;-66
2023/06/29 08:24:43;;;;;;;1.08;1.00;;;23.00;99.90;;;;;;5041771;28;20039;-66
2023/06/29 08:27:09;;;;;;;1.25;0.90;;;23.00;99.90;;;;;;5043823;28;20058;-67
2023/06/29 08:29:34;;;;;;;2.35;0.98;;;22.90;99.90;;;;;;5024560;28;20048;-65
2023/06/29 08:32:00;;;;;;;1.45;1.10;;;23.00;99.90;;;;;;5042437;28;20040;-67
2023/06/29 08:34:26;;;;;;;1.38;0.85;;;23.00;99.90;;;;;;5043620;28;20496;-67
2023/06/29 08:36:52;;;;;;;1.15;1.05;;;23.10;99.90;;;;;;5050210;28;20041;-66
2023/06/29 08:39:17;;;;;;;1.10;1.00;;;23.10;99.90;;;;;;5032144;28;20042;-67
2023/06/29 08:41:43;;;;;;;1.05;0.85;;;23.00;99.90;;;;;;5047402;28;20033;-67
2023/06/29 08:44:09;;;;;;;1.33;1.00;;;23.10;99.90;;;;;;5038890;28;20580;-67
2023/06/29 08:46:37;;;;;;;1.67;0.80;;;23.20;99.90;;;;;;5047726;28;20074;-67
2023/06/29 08:49:06;;;;;;;1.33;0.90;;;23.20;99.90;;;;;;5046645;28;20033;-67
2023/06/29 08:51:34;;;;;;;2.65;1.40;;;23.10;99.90;;;;;;5043313;28;20151;-67
2023/06/29 08:54:01;;;;;;;1.52;0.95;;;23.00;99.90;;;;;;5048661;28;20121;-67
2023/06/29 08:56:28;;;;;;;0.85;0.80;;;23.00;99.90;;;;;;5059342;28;20037;-67
2023/06/29 08:58:55;;;;;;;2.35;0.93;;;23.10;99.90;;;;;;5053744;28;20102;-67
2023/06/29 09:01:22;;;;;;;2.13;1.17;;;23.30;99.90;;;;;;5039855;28;20566;-67
2023/06/29 09:03:49;;;;;;;1.35;0.88;;;23.40;99.90;;;;;;5046730;28;20772;-67
2023/06/29 09:06:15;;;;;;;0.93;0.85;;;23.30;99.90;;;;;;5047947;28;20040;-67
2023/06/29 09:08:41;;;;;;;1.20;0.90;;;23.30;99.90;;;;;;5046703;28;20044;-66
2023/06/29 09:11:06;;;;;;;2.67;1.10;;;23.40;99.90;;;;;;5047791;28;20499;-66
2023/06/29 09:13:33;;;;;;;1.40;1.00;;;23.40;99.90;;;;;;5054951;28;20102;-65
2023/06/29 09:16:00;;;;;;;2.63;1.23;;;23.30;99.90;;;;;;5050182;28;20032;-65
2023/06/29 09:18:27;;;;;;;1.65;1.00;;;23.30;99.90;;;;;;5027628;28;20037;-65
2023/06/29 09:20:57;;;;;;;3.63;1.00;;;23.40;99.90;;;;;;5026260;28;20041;-65
2023/06/29 09:23:25;;;;;;;1.60;1.38;;;23.20;99.90;;;;;;5051489;28;20040;-65
2023/06/29 09:25:54;;;;;;;1.35;1.17;;;23.20;99.90;;;;;;5042893;28;20283;-67
2023/06/29 09:28:20;;;;;;;1.20;1.10;;;23.30;99.90;;;;;;5032494;28;20044;-67
2023/06/29 09:30:46;;;;;;;1.17;0.95;;;23.40;99.90;;;;;;5050571;28;20059;-67
2023/06/29 09:33:14;;;;;;;1.05;1.00;;;23.60;99.90;;;;;;5053136;28;20033;-67
2023/06/29 09:35:43;;;;;;;1.88;1.20;;;23.70;99.90;;;;;;5049225;28;20029;-67
2023/06/29 09:38:09;;;;;;;2.15;1.00;;;23.80;99.90;;;;;;5049721;28;20056;-67
2023/06/29 09:40:52;;;;;;;1.70;1.23;;;23.90;99.90;;;;;;5051286;28;20133;-66
2023/06/29 09:43:25;;;;;;;1.38;1.00;;;23.90;99.90;;;;;;5050064;28;20036;-67
2023/06/29 09:45:57;;;;;;;1.90;1.05;;;23.90;99.90;;;;;;5042778;28;20032;-67
2023/06/29 09:48:23;;;;;;;1.52;1.00;;;24.00;99.90;;;;;;5044685;28;20037;-67
2023/06/29 09:50:52;;;;;;;1.25;1.08;;;24.10;99.90;;;;;;5052398;28;20086;-66
2023/06/29 09:53:26;;;;;;;0.90;0.90;;;23.90;99.90;;;;;;5046736;28;20053;-67
2023/06/29 09:55:52;;;;;;;1.20;1.10;;;23.80;99.90;;;;;;5049244;28;20128;-66
2023/06/29 09:58:18;;;;;;;1.35;1.00;;;23.80;99.90;;;;;;5045794;28;20111;-67
2023/06/29 10:00:45;;;;;;;2.00;1.00;;;23.70;99.90;;;;;;5046246;28;20044;-67
2023/06/29 10:03:10;;;;;;;1.30;1.20;;;23.60;99.90;;;;;;5052375;28;20083;-65
2023/06/29 10:05:38;;;;;;;3.42;1.10;;;23.50;99.90;;;;;;5054091;28;20540;-65
2023/06/29 10:08:08;;;;;;;1.42;0.95;;;23.50;99.90;;;;;;5021444;28;20043;-65
2023/06/29 10:10:35;;;;;;;2.65;1.20;;;23.70;99.90;;;;;;5050720;28;20052;-65
2023/06/29 10:13:04;;;;;;;2.67;1.08;;;23.80;99.90;;;;;;5052876;28;20020;-65
2023/06/29 10:15:31;;;;;;;1.40;1.13;;;23.90;99.90;;;;;;5053032;28;20033;-65
2023/06/29 10:18:07;;;;;;;2.17;1.27;;;24.00;99.90;;;;;;5032443;28;20055;-65
2023/06/29 10:20:37;;;;;;;2.47;1.20;;;24.00;99.90;;;;;;5045313;28;20028;-66
2023/06/29 10:23:05;;;;;;;1.30;1.20;;;23.90;99.90;;;;;;5048345;28;20036;-65
2023/06/29 10:25:36;;;;;;;1.20;1.10;;;24.00;99.90;;;;;;5045412;28;20241;-65
2023/06/29 10:28:03;;;;;;;1.50;1.08;;;24.10;99.90;;;;;;5049494;28;20024;-65
2023/06/29 10:30:28;;;;;;;1.70;1.10;;;24.20;99.90;;;;;;5024541;28;20045;-68
2023/06/29 10:32:54;;;;;;;1.30;1.00;;;24.30;99.90;;;;;;5031075;28;20047;-68
2023/06/29 10:35:26;;;;;;;5.30;1.30;;;24.40;99.90;;;;;;5036656;28;20076;-68
2023/06/29 10:37:57;;;;;;;1.50;1.23;;;24.40;99.90;;;;;;5011142;28;20199;-65
2023/06/29 10:40:26;;;;;;;1.07;0.97;;;24.50;99.90;;;;;;5053379;28;20045;-65
2023/06/29 10:42:52;;;;;;;1.30;1.08;;;24.60;99.90;;;;;;5054170;28;20277;-65
2023/06/29 10:45:18;;;;;;;1.85;0.82;;;24.70;99.90;;;;;;5057177;28;20043;-65
2023/06/29 10:47:59;;;;;;;1.00;0.90;;;24.80;99.90;;;;;;5057153;28;20033;-65
2023/06/29 10:50:32;;;;;;;0.80;0.80;;;24.90;99.90;;;;;;5060102;28;20041;-65
2023/06/29 10:52:59;;;;;;;1.35;1.10;;;24.80;99.90;;;;;;5058242;28;20318;-65
2023/06/29 10:55:28;;;;;;;2.25;0.95;;;24.60;99.90;;;;;;5053514;28;20126;-68
2023/06/29 10:57:58;;;;;;;1.40;1.10;;;24.60;99.90;;;;;;5055471;28;20460;-68
2023/06/29 11:00:25;;;;;;;0.70;0.70;;;24.50;99.90;;;;;;5057479;28;20186;-68
2023/06/29 11:02:52;;;;;;;0.85;0.82;;;24.40;99.90;;;;;;5057371;28;20056;-68
2023/06/29 11:05:20;;;;;;;1.30;1.20;;;24.30;99.90;;;;;;5050866;28;20544;-67
2023/06/29 11:07:49;;;;;;;0.85;0.85;;;24.30;99.90;;;;;;5054269;28;21551;-66
2023/06/29 11:10:14;;;;;;;1.08;1.08;;;24.40;99.90;;;;;;5054866;28;20797;-66
2023/06/29 11:12:40;;;;;;;5.13;1.25;;;24.50;99.90;;;;;;5058189;28;20037;-66
2023/06/29 11:15:15;;;;;;;1.65;1.00;;;24.60;99.90;;;;;;5057277;28;20055;-65
2023/06/29 11:17:45;;;;;;;2.88;1.40;;;24.70;99.90;;;;;;5056578;28;20040;-66
2023/06/29 11:20:16;;;;;;;2.08;1.20;;;24.70;99.90;;;;;;5056079;28;20537;-66
2023/06/29 11:22:43;;;;;;;1.40;1.05;;;24.70;99.90;;;;;;5055830;28;20489;-66
2023/06/29 11:25:12;;;;;;;2.03;1.20;;;24.80;99.90;;;;;;5062360;28;20036;-67
2023/06/29 11:27:38;;;;;;;3.15;1.00;;;24.80;99.90;;;;;;5058162;28;20115;-66
2023/06/29 11:30:07;;;;;;;1.58;1.17;;;24.80;99.90;;;;;;5039899;28;20513;-65
2023/06/29 11:32:33;;;;;;;2.20;1.25;;;24.80;99.90;;;;;;5055914;28;21281;-65
2023/06/29 11:35:04;;;;;;;1.60;1.10;;;24.90;99.90;;;;;;5060291;28;20119;-63
2023/06/29 11:37:31;;;;;;;1.10;1.00;;;24.80;99.90;;;;;;5044085;28;20029;-63
2023/06/29 11:39:56;;;;;;;2.92;1.40;;;24.70;99.90;;;;;;5038936;28;20033;-63
2023/06/29 11:42:23;;;;;;;3.08;1.10;;;24.60;99.90;;;;;;5055167;28;20098;-63
2023/06/29 11:45:10;;;;;;;0.90;0.90;;;24.70;99.90;;;;;;5060387;28;20033;-64
2023/06/29 11:47:36;;;;;;;3.10;1.13;;;24.80;99.90;;;;;;5059272;28;20032;-63
2023/06/29 11:50:04;;;;;;;1.15;1.02;;;24.90;99.90;;;;;;5057012;28;20119;-63
2023/06/29 11:52:32;;;;;;;1.73;1.00;;;25.00;99.90;;;;;;5056257;28;20036;-63
2023/06/29 11:55:03;;;;;;;2.03;1.13;;;25.00;99.90;;;;;;5056113;28;20041;-63
2023/06/29 11:57:39;;;;;;;1.65;1.10;;;25.10;99.90;;;;;;5054527;28;20033;-63
2023/06/29 12:00:25;;;;;;;1.65;1.20;;;25.20;99.90;;;;;;5056670;28;20048;-64
2023/06/29 12:02:50;;;;;;;2.78;1.20;;;25.30;99.90;;;;;;5048307;28;20159;-64
2023/06/29 12:05:16;;;;;;;1.65;0.93;;;25.50;99.90;;;;;;5043988;28;20047;-64
2023/06/29 12:07:43;;;;;;;1.92;1.00;;;25.50;99.30;;;;;;5045104;28;20036;-64
2023/06/29 12:10:19;;;;;;;1.02;0.93;;;25.50;99.90;;;;;;5046358;28;20116;-63
2023/06/29 12:12:48;;;;;;;1.23;0.90;;;25.60;99.90;;;;;;5044827;28;20414;-63
2023/06/29 12:15:19;;;;;;;1.13;1.02;;;25.60;99.90;;;;;;5031021;28;20055;-64
2023/06/29 12:17:47;;;;;;;2.90;1.08;;;25.70;99.90;;;;;;5041474;28;20218;-63
2023/06/29 12:20:42;;;;;;;1.40;1.30;;;25.70;99.90;;;;;;5039626;28;20044;-64
2023/06/29 12:23:10;;;;;;;2.13;0.85;;;25.70;99.90;;;;;;5044388;28;20056;-64
2023/06/29 12:25:46;;;;;;;1.08;0.98;;;25.60;99.50;;;;;;5044156;28;20151;-64
2023/06/29 12:28:13;;;;;;;3.05;1.08;;;25.50;99.20;;;;;;5047373;28;20593;-66
2023/06/29 12:30:40;;;;;;;2.05;1.30;;;25.40;99.00;;;;;;5042077;28;20042;-65
2023/06/29 12:33:06;;;;;;;3.05;1.60;;;25.20;99.40;;;;;;5055736;28;20064;-66
2023/06/29 12:35:31;;;;;;;2.28;1.25;;;25.10;98.40;;;;;;5053574;28;20033;-66
2023/06/29 12:37:58;;;;;;;1.38;1.00;;;25.10;98.40;;;;;;5053063;28;20087;-66
2023/06/29 12:40:23;;;;;;;1.58;1.20;;;25.20;99.30;;;;;;5056256;28;20028;-66
2023/06/29 12:42:49;;;;;;;2.60;1.50;;;25.40;99.90;;;;;;5055514;28;20028;-66
2023/06/29 12:45:15;;;;;;;1.63;1.20;;;25.50;98.90;;;;;;5032345;28;20567;-67
2023/06/29 12:47:41;;;;;;;1.85;1.40;;;25.50;98.20;;;;;;5039011;28;20044;-66